Time;durP1;ratioP1;P1;durP2;ratioP2;P2;SDS_P1;SDS_P2;PMS_P1;PMS_P2;Temp;Humidity;BMP_temperature;BMP_pressure;BME280_temperature;BME280_humidity;BME280_pressure;Samples;Min_cycle;Max_cycle;Signal;HPM_P1;HPM_P2
2021/12/15 00:00:28;;;;;;;5.30;4.80;;;18.10;57.00;;;;;;5025663;28;20516;-62
2021/12/15 00:02:54;;;;;;;8.02;4.75;;;18.10;57.00;;;;;;5025996;28;20030;-62
2021/12/15 00:05:22;;;;;;;5.80;4.03;;;18.10;57.00;;;;;;5025868;28;20112;-63
2021/12/15 00:07:49;;;;;;;6.38;4.65;;;18.20;57.00;;;;;;5025939;28;20418;-59
2021/12/15 00:10:15;;;;;;;7.75;4.80;;;18.10;57.00;;;;;;5025199;28;20038;-58
2021/12/15 00:12:40;;;;;;;4.40;3.88;;;18.10;56.90;;;;;;5007863;28;20060;-62
2021/12/15 00:15:06;;;;;;;7.13;4.20;;;18.10;56.90;;;;;;5026005;28;20052;-61
2021/12/15 00:17:32;;;;;;;6.57;4.47;;;18.10;56.80;;;;;;5025269;28;20034;-62
2021/12/15 00:19:57;;;;;;;7.63;4.53;;;18.10;56.80;;;;;;5025367;28;20116;-61
2021/12/15 00:22:23;;;;;;;4.93;4.43;;;18.10;56.80;;;;;;5026305;28;20167;-54
2021/12/15 00:24:48;;;;;;;5.22;4.00;;;18.10;56.80;;;;;;5025229;28;20585;-62
2021/12/15 00:27:14;;;;;;;8.90;4.97;;;18.10;56.80;;;;;;5007317;28;20060;-61
2021/12/15 00:29:39;;;;;;;4.85;4.35;;;18.10;56.80;;;;;;5024899;28;20037;-57
2021/12/15 00:32:06;;;;;;;5.03;4.30;;;18.10;56.70;;;;;;5025058;28;20032;-62
2021/12/15 00:34:33;;;;;;;5.28;3.90;;;18.10;56.80;;;;;;5025023;28;20026;-59
2021/12/15 00:36:58;;;;;;;7.05;4.32;;;18.10;56.80;;;;;;5008506;28;20034;-58
2021/12/15 00:39:25;;;;;;;5.22;4.00;;;18.10;56.70;;;;;;5025812;28;20107;-61
2021/12/15 00:41:51;;;;;;;5.43;4.53;;;18.10;56.70;;;;;;5008037;28;20037;-61
2021/12/15 00:44:16;;;;;;;5.75;4.13;;;18.10;56.70;;;;;;5027198;28;20053;-56
2021/12/15 00:46:43;;;;;;;5.15;4.00;;;18.10;56.70;;;;;;5028439;28;20022;-57
2021/12/15 00:49:08;;;;;;;5.13;4.22;;;18.10;56.60;;;;;;5028620;28;20021;-55
2021/12/15 00:51:35;;;;;;;4.22;3.83;;;18.10;56.60;;;;;;5029091;28;20037;-61
2021/12/15 00:54:01;;;;;;;4.93;3.65;;;18.10;56.70;;;;;;5011447;28;20032;-59
2021/12/15 00:56:27;;;;;;;4.07;3.42;;;18.10;56.60;;;;;;5085486;22;20561;-63
2021/12/15 00:58:53;;;;;;;5.20;3.78;;;18.10;56.60;;;;;;5063456;28;20036;-62
2021/12/15 01:01:18;;;;;;;3.72;3.33;;;18.10;56.60;;;;;;5066982;28;20541;-61
2021/12/15 01:03:44;;;;;;;3.95;3.55;;;18.10;56.60;;;;;;5066304;28;20032;-62
2021/12/15 01:06:12;;;;;;;3.63;3.33;;;18.10;56.50;;;;;;5055318;28;20047;-62
2021/12/15 01:08:44;;;;;;;4.25;3.38;;;18.10;56.50;;;;;;5047366;28;20025;-62
2021/12/15 01:11:22;;;;;;;4.38;3.65;;;18.10;56.50;;;;;;5046443;28;20025;-61
2021/12/15 01:22:07;;;;;;;5.13;3.67;;;18.10;56.40;;;;;;5048351;28;20036;-62
2021/12/15 01:24:32;;;;;;;4.95;3.72;;;18.10;57.00;;;;;;5048057;28;20032;-60
2021/12/15 01:26:58;;;;;;;3.90;3.25;;;18.10;56.30;;;;;;5049117;28;20111;-62
2021/12/15 01:29:23;;;;;;;3.53;3.22;;;18.10;56.40;;;;;;5048217;28;20025;-62
2021/12/15 01:31:49;;;;;;;4.07;3.40;;;18.10;56.30;;;;;;5047643;28;20036;-61
2021/12/15 01:34:14;;;;;;;4.35;3.40;;;18.10;56.30;;;;;;5048240;28;20486;-61
2021/12/15 01:36:40;;;;;;;4.88;3.67;;;18.10;56.20;;;;;;5047903;28;20025;-62
2021/12/15 01:39:05;;;;;;;3.35;3.05;;;18.10;56.20;;;;;;5047813;28;20055;-63
2021/12/15 01:41:31;;;;;;;4.00;3.30;;;18.10;56.20;;;;;;5048109;28;20028;-61
2021/12/15 01:49:26;;;;;;;3.75;3.35;;;18.10;56.20;;;;;;5041168;28;20075;-61
2021/12/15 01:51:51;;;;;;;4.28;3.88;;;18.10;56.20;;;;;;5043980;28;20109;-61
2021/12/15 01:54:17;;;;;;;3.50;3.10;;;18.00;56.10;;;;;;5048099;28;20116;-61
2021/12/15 01:56:42;;;;;;;3.75;2.90;;;18.10;56.20;;;;;;5047958;28;20033;-62
2021/12/15 01:59:08;;;;;;;2.67;2.38;;;18.10;56.20;;;;;;5047469;28;20673;-61
2021/12/15 02:01:34;;;;;;;3.55;3.25;;;18.10;56.20;;;;;;5047066;28;20037;-62
2021/12/15 02:03:59;;;;;;;3.10;2.80;;;18.00;56.10;;;;;;5046140;28;20091;-63
2021/12/15 02:06:26;;;;;;;3.90;3.15;;;18.00;56.10;;;;;;5048479;28;20037;-60
2021/12/15 02:08:52;;;;;;;3.55;3.20;;;18.00;56.10;;;;;;5047788;28;20044;-62
2021/12/15 02:11:17;;;;;;;3.33;2.70;;;18.10;56.20;;;;;;5047670;28;20048;-63
2021/12/15 02:13:43;;;;;;;3.40;2.95;;;18.00;56.80;;;;;;5047084;28;20028;-62
2021/12/15 02:16:08;;;;;;;3.40;3.10;;;18.00;56.20;;;;;;5046776;28;20029;-62
2021/12/15 02:18:41;;;;;;;2.92;2.72;;;18.00;56.20;;;;;;5047107;28;20040;-62
2021/12/15 02:21:09;;;;;;;3.47;3.05;;;18.00;56.20;;;;;;5047578;28;20029;-61
2021/12/15 02:23:40;;;;;;;2.63;2.42;;;17.90;56.20;;;;;;5048183;28;20025;-61
2021/12/15 02:26:12;;;;;;;3.30;3.00;;;17.90;56.30;;;;;;5047939;28;20033;-61
2021/12/15 02:28:38;;;;;;;3.10;2.80;;;17.90;56.30;;;;;;5048047;28;20370;-62
2021/12/15 02:31:38;;;;;;;2.88;2.58;;;17.90;56.30;;;;;;5046988;28;20029;-61
2021/12/15 02:34:02;;;;;;;2.90;2.60;;;17.90;56.40;;;;;;5046798;28;20056;-62
2021/12/15 02:39:14;;;;;;;2.90;2.60;;;17.90;56.40;;;;;;5046469;28;20531;-61
2021/12/15 02:41:39;;;;;;;3.45;2.70;;;17.90;56.40;;;;;;5046887;28;20028;-63
2021/12/15 02:44:07;;;;;;;3.22;2.78;;;17.90;56.40;;;;;;5047024;28;20029;-61
2021/12/15 02:46:34;;;;;;;2.70;2.50;;;17.80;56.40;;;;;;5046043;28;20116;-61
2021/12/15 02:49:00;;;;;;;4.70;2.75;;;17.80;56.40;;;;;;5046222;28;20563;-62
2021/12/15 02:51:25;;;;;;;2.47;2.28;;;17.80;56.40;;;;;;5045938;28;20033;-63
2021/12/15 02:53:51;;;;;;;2.78;2.50;;;17.80;56.40;;;;;;5046796;28;20033;-61
2021/12/15 02:56:16;;;;;;;2.67;2.47;;;17.80;56.40;;;;;;5046223;28;20090;-61
2021/12/15 02:58:49;;;;;;;2.50;2.28;;;17.80;56.40;;;;;;5044766;28;20086;-62
2021/12/15 03:01:23;;;;;;;2.50;2.30;;;17.80;56.50;;;;;;5046193;28;20041;-61
2021/12/15 03:06:37;;;;;;;2.83;2.63;;;17.70;56.40;;;;;;5045010;28;20074;-61
2021/12/15 03:17:08;;;;;;;2.83;2.50;;;17.70;56.50;;;;;;5046816;28;20057;-61
2021/12/15 03:19:33;;;;;;;2.33;2.13;;;17.70;56.50;;;;;;5046346;28;20052;-62
2021/12/15 03:21:59;;;;;;;4.07;2.40;;;17.70;56.50;;;;;;5046793;28;20066;-62
2021/12/15 03:24:25;;;;;;;2.83;2.40;;;17.70;56.60;;;;;;5046383;28;20102;-63
2021/12/15 03:26:58;;;;;;;3.10;2.80;;;17.60;56.50;;;;;;5046149;28;20520;-61
2021/12/15 03:35:17;;;;;;;2.75;2.45;;;17.60;56.80;;;;;;5047063;28;20044;-63
2021/12/15 03:37:49;;;;;;;2.58;2.22;;;17.60;56.60;;;;;;5046204;28;20067;-62
2021/12/15 03:40:21;;;;;;;2.42;2.22;;;17.60;56.50;;;;;;5045314;28;20120;-61
2021/12/15 03:42:48;;;;;;;2.22;2.03;;;17.70;56.50;;;;;;5045506;28;20052;-62
2021/12/15 03:45:26;;;;;;;2.38;2.10;;;17.70;56.50;;;;;;5045552;28;20057;-63
2021/12/15 03:47:52;;;;;;;2.53;2.25;;;17.70;56.50;;;;;;5039141;28;20033;-62
2021/12/15 03:50:20;;;;;;;3.40;2.63;;;17.70;56.40;;;;;;5045972;28;20040;-61
2021/12/15 03:52:49;;;;;;;5.13;2.63;;;17.70;56.40;;;;;;5045908;28;20043;-63
2021/12/15 03:55:16;;;;;;;2.75;2.35;;;17.70;56.30;;;;;;5045606;28;20037;-62
2021/12/15 03:57:41;;;;;;;2.47;2.10;;;17.80;56.20;;;;;;5025986;28;20033;-62
2021/12/15 04:00:08;;;;;;;3.30;2.38;;;17.90;56.00;;;;;;5034694;28;20116;-62
2021/12/15 04:02:33;;;;;;;2.97;2.53;;;17.90;55.80;;;;;;5045802;28;20036;-62
2021/12/15 04:04:59;;;;;;;2.90;2.42;;;18.00;55.60;;;;;;5046395;28;20029;-63
2021/12/15 04:07:24;;;;;;;2.90;2.70;;;18.00;55.50;;;;;;5045783;28;20125;-62
2021/12/15 04:09:50;;;;;;;2.95;2.65;;;18.10;55.40;;;;;;5045342;28;20044;-62
2021/12/15 04:12:15;;;;;;;3.70;2.20;;;18.00;55.30;;;;;;5045688;28;20037;-59
2021/12/15 04:14:44;;;;;;;2.45;2.20;;;18.10;55.30;;;;;;5045627;28;20028;-63
2021/12/15 04:17:26;;;;;;;2.80;2.60;;;18.10;55.30;;;;;;5045341;28;20033;-62
2021/12/15 04:19:53;;;;;;;2.83;2.20;;;18.10;55.20;;;;;;5041202;28;20033;-63
2021/12/15 04:22:18;;;;;;;2.55;2.28;;;18.10;55.10;;;;;;5048989;28;20040;-63
2021/12/15 04:24:44;;;;;;;4.25;2.03;;;18.20;55.20;;;;;;5049399;28;20048;-61
2021/12/15 04:27:09;;;;;;;1.90;1.80;;;18.20;55.10;;;;;;5049464;28;20029;-61
2021/12/15 04:29:35;;;;;;;2.55;2.20;;;18.20;55.10;;;;;;5049333;28;20573;-61
2021/12/15 04:32:09;;;;;;;2.38;2.17;;;18.20;55.00;;;;;;5049246;28;20451;-63
2021/12/15 04:34:34;;;;;;;2.28;2.08;;;18.20;55.00;;;;;;5049274;28;20043;-62
2021/12/15 04:37:00;;;;;;;1.90;1.80;;;18.20;55.00;;;;;;5049779;28;20025;-60
2021/12/15 04:39:26;;;;;;;2.08;1.88;;;18.20;55.00;;;;;;5050257;28;20032;-62
2021/12/15 04:41:52;;;;;;;2.45;2.25;;;18.20;54.90;;;;;;5049622;28;20029;-62
2021/12/15 04:44:19;;;;;;;2.38;2.17;;;18.20;55.50;;;;;;5050993;28;20155;-61
2021/12/15 04:46:56;;;;;;;2.40;2.00;;;18.20;54.90;;;;;;5047658;28;20485;-62
2021/12/15 04:49:22;;;;;;;2.45;2.25;;;18.30;54.90;;;;;;5048628;28;20509;-61
2021/12/15 04:51:47;;;;;;;2.35;2.15;;;18.30;54.90;;;;;;5048789;28;20162;-61
2021/12/15 04:54:13;;;;;;;3.05;1.90;;;18.30;54.80;;;;;;5048946;28;20116;-61
2021/12/15 04:56:39;;;;;;;3.17;2.03;;;18.30;54.80;;;;;;5047974;28;20059;-64
2021/12/15 04:59:04;;;;;;;2.13;1.83;;;18.30;54.80;;;;;;5048958;28;20516;-62
2021/12/15 05:01:30;;;;;;;2.33;1.92;;;18.30;54.80;;;;;;5049858;28;20093;-61
2021/12/15 05:03:55;;;;;;;2.20;2.00;;;18.30;54.80;;;;;;5048186;28;20316;-64
2021/12/15 05:06:22;;;;;;;2.97;1.90;;;18.30;54.80;;;;;;5048737;28;20044;-61
2021/12/15 05:08:47;;;;;;;2.42;1.90;;;18.30;54.70;;;;;;5048070;28;20029;-62
2021/12/15 05:11:13;;;;;;;2.17;1.98;;;18.30;54.70;;;;;;5048940;28;20028;-62
2021/12/15 05:13:38;;;;;;;3.10;2.25;;;18.30;54.70;;;;;;5048509;28;20497;-59
2021/12/15 05:16:04;;;;;;;2.47;2.03;;;18.30;54.70;;;;;;5048494;28;20079;-64
2021/12/15 05:18:30;;;;;;;1.67;1.58;;;18.30;54.70;;;;;;5048408;28;20064;-62
2021/12/15 05:20:58;;;;;;;1.80;1.63;;;18.30;54.70;;;;;;5048348;28;20485;-62
2021/12/15 05:23:28;;;;;;;1.95;1.85;;;18.30;54.60;;;;;;5048270;28;20022;-60
2021/12/15 05:25:54;;;;;;;2.08;1.88;;;18.30;54.70;;;;;;5039494;28;20393;-62
2021/12/15 05:28:19;;;;;;;3.17;1.67;;;18.30;54.60;;;;;;5048051;28;20029;-61
2021/12/15 05:30:45;;;;;;;2.40;2.05;;;18.30;54.60;;;;;;5047822;28;20040;-62
2021/12/15 05:33:10;;;;;;;2.58;2.13;;;18.30;54.60;;;;;;5047286;28;20029;-61
2021/12/15 05:35:37;;;;;;;2.17;1.95;;;18.30;54.60;;;;;;5047960;28;20555;-61
2021/12/15 05:38:03;;;;;;;1.77;1.60;;;18.30;54.50;;;;;;5047569;28;20047;-62
2021/12/15 05:40:29;;;;;;;1.98;1.85;;;18.30;54.50;;;;;;5047849;28;20401;-62
2021/12/15 05:42:58;;;;;;;1.80;1.70;;;18.30;54.50;;;;;;5046377;28;20033;-63
2021/12/15 05:45:27;;;;;;;2.38;1.95;;;18.30;54.50;;;;;;5062829;28;20086;-63
2021/12/15 05:47:54;;;;;;;1.90;1.75;;;18.30;54.40;;;;;;5047491;28;20037;-61
2021/12/15 05:50:19;;;;;;;2.00;1.70;;;18.30;54.40;;;;;;5047383;28;20120;-63
2021/12/15 05:52:45;;;;;;;2.20;1.98;;;18.40;54.40;;;;;;5043570;28;20033;-61
2021/12/15 05:55:12;;;;;;;2.03;1.90;;;18.30;54.40;;;;;;5047227;28;20044;-63
2021/12/15 05:57:37;;;;;;;1.77;1.67;;;18.40;54.40;;;;;;5047827;28;20029;-61
2021/12/15 06:00:08;;;;;;;2.30;2.10;;;18.40;54.40;;;;;;5045990;28;20036;-63
2021/12/15 06:02:34;;;;;;;2.22;2.03;;;18.30;54.40;;;;;;5047515;28;20094;-62
2021/12/15 06:04:59;;;;;;;2.63;2.20;;;18.40;54.40;;;;;;5047758;28;20123;-61
2021/12/15 06:07:25;;;;;;;1.77;1.67;;;18.40;54.40;;;;;;5047831;28;20074;-62
2021/12/15 06:09:50;;;;;;;1.45;1.35;;;18.40;54.40;;;;;;5046651;28;20025;-63
2021/12/15 06:12:16;;;;;;;1.95;1.80;;;18.40;54.30;;;;;;5047174;28;20029;-61
2021/12/15 06:14:43;;;;;;;2.22;1.98;;;18.30;54.30;;;;;;5047595;28;20388;-63
2021/12/15 06:17:09;;;;;;;2.35;1.92;;;18.30;54.40;;;;;;5047783;28;20401;-63
2021/12/15 06:19:35;;;;;;;2.22;1.83;;;18.30;54.40;;;;;;5047260;28;20128;-64
2021/12/15 06:22:00;;;;;;;2.72;2.08;;;18.30;54.50;;;;;;5048016;28;20107;-61
2021/12/15 06:24:26;;;;;;;2.42;1.75;;;18.30;54.40;;;;;;5046479;28;20085;-62
2021/12/15 06:26:51;;;;;;;3.70;1.98;;;18.30;54.40;;;;;;5049580;28;20025;-63
2021/12/15 06:29:17;;;;;;;1.70;1.60;;;18.20;54.40;;;;;;5045393;28;20037;-61
2021/12/15 06:31:42;;;;;;;5.45;2.35;;;18.20;54.50;;;;;;5040449;28;20048;-60
2021/12/15 06:34:08;;;;;;;3.38;2.33;;;18.30;54.70;;;;;;5055284;28;20025;-65
2021/12/15 06:36:34;;;;;;;5.25;3.22;;;18.30;54.70;;;;;;5044844;28;20017;-64
2021/12/15 06:38:59;;;;;;;4.53;3.80;;;18.20;55.00;;;;;;5047966;28;20045;-62
2021/12/15 06:41:25;;;;;;;4.15;2.95;;;18.20;55.20;;;;;;5045869;28;20064;-62
2021/12/15 06:43:55;;;;;;;8.15;3.50;;;18.20;55.30;;;;;;5047377;28;20595;-62
2021/12/15 06:46:43;;;;;;;5.70;3.58;;;18.20;55.20;;;;;;5047497;28;20036;-62
2021/12/15 07:00:07;;;;;;;5.13;3.17;;;18.30;54.90;;;;;;5036518;28;20098;-61
2021/12/15 07:02:33;;;;;;;4.03;2.92;;;18.20;54.80;;;;;;5049366;23;21689;-73
2021/12/15 07:04:58;;;;;;;5.35;3.08;;;18.20;54.70;;;;;;5026408;28;20040;-72
2021/12/15 07:07:24;;;;;;;2.97;2.47;;;18.30;54.70;;;;;;5026809;28;20641;-74
2021/12/15 07:09:49;;;;;;;3.92;3.05;;;18.30;54.70;;;;;;5025763;28;20399;-74
2021/12/15 07:12:15;;;;;;;4.78;2.47;;;18.30;54.70;;;;;;5046458;28;20044;-75
2021/12/15 07:14:40;;;;;;;7.82;3.47;;;18.30;54.60;;;;;;5045658;28;20112;-75
2021/12/15 07:17:10;;;;;;;5.75;3.38;;;18.30;54.60;;;;;;5046259;28;20595;-76
2021/12/15 07:20:02;;;;;;;5.32;3.08;;;18.30;54.60;;;;;;5041178;28;20033;-74
2021/12/15 07:22:32;;;;;;;7.55;3.25;;;18.30;54.60;;;;;;5045817;28;20052;-73
2021/12/15 07:24:57;;;;;;;7.03;3.08;;;18.20;54.60;;;;;;5046577;28;20104;-74
2021/12/15 07:27:23;;;;;;;2.85;2.47;;;18.20;54.60;;;;;;5047103;28;20127;-75
2021/12/15 07:29:49;;;;;;;8.32;3.70;;;18.20;55.20;;;;;;5049098;28;20534;-77
2021/12/15 07:32:14;;;;;;;7.80;3.50;;;18.20;55.70;;;;;;5047418;28;20452;-75
2021/12/15 07:34:40;;;;;;;10.65;5.78;;;18.20;55.90;;;;;;5029845;28;20029;-74
2021/12/15 07:37:05;;;;;;;16.45;7.97;;;18.20;55.90;;;;;;5048127;28;20032;-76
2021/12/15 07:39:31;;;;;;;16.55;8.30;;;18.20;56.00;;;;;;5046761;28;20056;-72
2021/12/15 07:42:06;;;;;;;17.05;6.60;;;18.20;55.90;;;;;;5046429;28;20434;-74
2021/12/15 07:44:31;;;;;;;11.68;5.78;;;18.10;55.80;;;;;;5047019;28;20535;-74
2021/12/15 07:46:57;;;;;;;10.38;6.43;;;18.10;55.70;;;;;;5046371;28;20041;-75
2021/12/15 07:49:23;;;;;;;10.60;6.28;;;18.10;55.60;;;;;;5046310;28;20040;-75
2021/12/15 07:51:52;;;;;;;11.27;5.88;;;18.10;55.60;;;;;;5029860;28;20120;-74
2021/12/15 07:54:19;;;;;;;10.20;6.03;;;18.00;55.60;;;;;;5034260;28;20040;-74
2021/12/15 07:56:45;;;;;;;11.57;5.90;;;18.00;55.70;;;;;;5051607;28;20026;-74
2021/12/15 07:59:11;;;;;;;9.43;6.03;;;17.90;55.60;;;;;;5050759;28;20074;-74
2021/12/15 08:01:36;;;;;;;12.73;6.43;;;17.90;55.70;;;;;;5033652;28;20021;-74
2021/12/15 08:04:02;;;;;;;11.02;6.28;;;17.90;55.70;;;;;;5050715;28;20033;-75
2021/12/15 08:06:27;;;;;;;11.02;6.30;;;17.90;55.70;;;;;;5049850;28;20021;-75
2021/12/15 08:08:53;;;;;;;33.55;17.85;;;17.90;55.60;;;;;;5033131;28;20108;-73
2021/12/15 08:11:19;;;;;;;34.67;16.35;;;17.90;56.40;;;;;;5050267;28;20033;-75
2021/12/15 08:13:44;;;;;;;30.65;15.80;;;17.90;56.30;;;;;;5050015;28;20452;-74
2021/12/15 08:16:10;;;;;;;28.35;14.10;;;17.90;56.20;;;;;;5033351;28;20039;-74
2021/12/15 08:18:35;;;;;;;30.88;15.52;;;17.80;56.10;;;;;;5033324;28;20027;-75
2021/12/15 08:21:04;;;;;;;27.67;14.93;;;17.80;56.10;;;;;;5051752;28;20028;-75
2021/12/15 08:23:29;;;;;;;23.50;13.18;;;17.80;56.00;;;;;;5033845;28;20032;-74
2021/12/15 08:25:55;;;;;;;26.77;14.02;;;17.80;55.90;;;;;;5033241;28;20040;-74
2021/12/15 08:28:20;;;;;;;24.45;14.13;;;17.90;56.00;;;;;;5050028;28;20035;-75
2021/12/15 08:30:47;;;;;;;25.73;12.73;;;17.80;55.80;;;;;;5049670;28;20063;-75
2021/12/15 08:33:16;;;;;;;24.30;12.65;;;17.80;55.80;;;;;;5049809;28;20037;-74
2021/12/15 08:35:44;;;;;;;24.58;13.40;;;17.80;55.70;;;;;;5049672;28;20033;-74
2021/12/15 08:38:11;;;;;;;24.73;12.48;;;17.80;55.70;;;;;;5049632;28;20040;-75
2021/12/15 08:40:37;;;;;;;20.33;11.82;;;17.80;55.70;;;;;;5032803;28;20029;-75
2021/12/15 08:43:03;;;;;;;21.58;12.02;;;17.80;55.60;;;;;;5049556;28;20052;-74
2021/12/15 08:45:29;;;;;;;24.67;12.40;;;17.80;55.60;;;;;;5031219;28;20637;-75
2021/12/15 08:47:55;;;;;;;20.77;12.52;;;17.80;55.60;;;;;;5049181;28;20029;-77
2021/12/15 08:50:26;;;;;;;21.92;11.93;;;17.80;55.60;;;;;;5048699;28;20036;-75
2021/12/15 08:52:52;;;;;;;31.15;15.50;;;17.80;55.50;;;;;;5033449;28;20443;-73
2021/12/15 08:55:17;;;;;;;28.83;14.63;;;17.90;56.30;;;;;;5051069;28;20033;-76
2021/12/15 08:57:48;;;;;;;30.25;13.80;;;17.90;56.80;;;;;;5016179;28;20025;-73
2021/12/15 09:00:15;;;;;;;27.88;15.10;;;17.90;57.30;;;;;;5033525;28;20029;-74
2021/12/15 09:02:40;;;;;;;26.75;14.52;;;17.90;57.50;;;;;;5032709;28;20078;-74
2021/12/15 09:05:06;;;;;;;29.13;15.45;;;17.90;57.50;;;;;;5050720;28;20037;-75
2021/12/15 09:07:32;;;;;;;27.65;15.50;;;18.00;57.50;;;;;;5050915;28;20103;-73
2021/12/15 09:09:58;;;;;;;25.75;14.85;;;18.00;57.60;;;;;;5032460;28;20024;-76
2021/12/15 09:12:23;;;;;;;24.60;14.70;;;18.00;57.40;;;;;;5050745;28;20621;-75
2021/12/15 09:14:49;;;;;;;25.58;13.82;;;18.10;57.60;;;;;;5049177;28;20029;-75
2021/12/15 09:17:14;;;;;;;27.00;13.90;;;18.10;57.60;;;;;;5049032;28;20464;-74
2021/12/15 09:19:40;;;;;;;26.67;14.55;;;18.10;57.50;;;;;;5049378;28;20025;-75
2021/12/15 09:22:05;;;;;;;21.35;11.45;;;18.20;57.40;;;;;;5032131;28;20036;-75
2021/12/15 09:24:31;;;;;;;19.73;11.40;;;18.20;57.50;;;;;;5047808;28;20411;-75
2021/12/15 09:26:56;;;;;;;26.13;12.00;;;18.20;57.60;;;;;;5048654;28;20040;-77
2021/12/15 09:29:22;;;;;;;17.58;9.65;;;18.20;57.30;;;;;;5048007;28;20064;-71
2021/12/15 09:31:48;;;;;;;19.55;10.50;;;18.20;57.40;;;;;;5047791;28;20070;-70
2021/12/15 09:34:17;;;;;;;18.98;9.90;;;18.30;57.40;;;;;;5049193;28;20048;-73
2021/12/15 09:36:45;;;;;;;17.45;9.18;;;18.20;57.30;;;;;;5031536;28;20059;-71
2021/12/15 09:39:12;;;;;;;24.27;9.35;;;18.30;57.30;;;;;;5030259;28;20349;-73
2021/12/15 09:41:38;;;;;;;16.13;8.85;;;18.30;57.30;;;;;;5044085;28;20033;-73
2021/12/15 09:44:08;;;;;;;15.88;8.80;;;18.30;57.40;;;;;;5028646;28;20037;-73
2021/12/15 09:46:41;;;;;;;15.93;8.60;;;18.30;57.40;;;;;;5044525;28;20695;-73
2021/12/15 09:57:28;;;;;;;16.05;8.05;;;18.20;57.50;;;;;;5001012;28;20475;-62
2021/12/15 10:03:04;;;;;;;14.88;7.72;;;18.10;57.40;;;;;;5004178;28;20037;-63
2021/12/15 10:05:38;;;;;;;13.38;6.93;;;18.10;57.40;;;;;;5002083;28;20049;-61
2021/12/15 10:19:22;;;;;;;10.13;6.63;;;18.30;57.10;;;;;;5000874;28;20109;-62
2021/12/15 10:22:13;;;;;;;11.38;6.70;;;18.30;57.00;;;;;;5001597;28;20036;-61
2021/12/15 10:24:46;;;;;;;11.23;6.03;;;18.30;56.90;;;;;;5000916;28;20520;-62
2021/12/15 10:27:13;;;;;;;10.93;6.40;;;18.30;56.80;;;;;;5000833;28;20034;-63
2021/12/15 10:30:25;;;;;;;10.25;6.30;;;18.40;56.70;;;;;;4999224;28;20230;-63
2021/12/15 10:32:56;;;;;;;11.27;6.18;;;18.40;56.60;;;;;;4959860;28;20041;-62
2021/12/15 10:35:29;;;;;;;7.45;5.75;;;18.30;56.40;;;;;;4959842;28;20046;-62
2021/12/15 10:38:15;;;;;;;11.63;6.00;;;18.40;56.50;;;;;;4984838;28;20034;-62
2021/12/15 10:40:55;;;;;;;8.85;6.13;;;18.30;56.50;;;;;;4998994;28;20109;-63
2021/12/15 10:43:22;;;;;;;7.97;5.57;;;18.30;56.50;;;;;;5002602;28;20037;-63
2021/12/15 10:45:51;;;;;;;10.40;5.25;;;18.20;56.50;;;;;;5001726;28;20044;-62
2021/12/15 10:48:22;;;;;;;13.52;5.78;;;18.20;56.60;;;;;;5001820;28;20056;-62
2021/12/15 10:50:48;;;;;;;7.03;5.32;;;18.20;56.60;;;;;;5000581;28;20034;-63
2021/12/15 10:53:14;;;;;;;10.35;5.68;;;18.20;56.60;;;;;;5001592;28;20518;-63
2021/12/15 10:55:39;;;;;;;5.72;4.60;;;18.20;56.70;;;;;;4983011;28;20192;-62
2021/12/15 10:58:36;;;;;;;5.97;4.40;;;18.10;56.70;;;;;;5002202;28;20052;-64
2021/12/15 11:01:05;;;;;;;6.70;4.75;;;18.10;56.70;;;;;;4999787;28;20038;-63
2021/12/15 11:03:33;;;;;;;7.47;4.70;;;18.10;56.70;;;;;;5002350;28;20056;-63
2021/12/15 11:05:58;;;;;;;8.05;4.72;;;18.10;56.70;;;;;;5003703;28;20089;-62
2021/12/15 11:08:24;;;;;;;6.43;3.85;;;18.10;56.70;;;;;;5004417;28;20515;-61
2021/12/15 11:10:52;;;;;;;7.40;4.68;;;18.10;56.80;;;;;;5004711;28;20168;-61
2021/12/15 11:13:17;;;;;;;7.35;4.68;;;18.10;56.80;;;;;;5003975;28;20060;-61
2021/12/15 11:15:48;;;;;;;8.40;5.38;;;18.00;56.80;;;;;;5001988;28;20062;-62
2021/12/15 11:18:17;;;;;;;6.50;4.13;;;18.00;56.70;;;;;;4999356;28;20042;-61
2021/12/15 11:20:45;;;;;;;7.65;4.03;;;18.00;56.70;;;;;;5000120;28;20044;-62
2021/12/15 11:23:14;;;;;;;5.95;4.43;;;18.00;56.80;;;;;;5001074;28;20487;-61
2021/12/15 11:25:41;;;;;;;5.05;3.92;;;18.00;56.80;;;;;;5000422;28;20092;-62
2021/12/15 11:28:16;;;;;;;5.70;3.95;;;18.00;56.90;;;;;;5000326;28;20547;-61
2021/12/15 11:30:52;;;;;;;6.95;4.60;;;18.00;56.90;;;;;;4979869;28;20045;-62
2021/12/15 11:33:17;;;;;;;;;;;18.00;56.90;;;;;;4981597;28;20085;-63
2021/12/15 11:35:50;;;;;;;4.90;3.20;;;18.00;56.90;;;;;;4997340;28;20343;-63
2021/12/15 11:38:19;;;;;;;5.78;3.80;;;18.00;56.90;;;;;;5000885;28;20034;-64
2021/12/15 11:40:47;;;;;;;5.32;4.15;;;18.00;56.90;;;;;;5000706;28;20136;-62
2021/12/15 11:43:39;;;;;;;4.10;3.10;;;17.90;56.90;;;;;;4999674;28;20527;-64
2021/12/15 11:46:25;;;;;;;9.85;4.05;;;17.90;57.10;;;;;;5000428;28;20121;-63
2021/12/15 11:48:59;;;;;;;6.20;3.25;;;18.00;57.20;;;;;;5000053;28;20026;-62
2021/12/15 11:51:33;;;;;;;5.50;3.65;;;18.00;57.40;;;;;;4996726;28;20062;-61
2021/12/15 11:53:59;;;;;;;5.30;3.22;;;18.00;57.50;;;;;;4983947;28;20042;-61
2021/12/15 11:56:28;;;;;;;5.55;3.50;;;17.90;57.40;;;;;;5000271;28;20037;-63
2021/12/15 11:58:57;;;;;;;4.70;3.20;;;17.90;57.50;;;;;;4998939;28;20198;-63
2021/12/15 12:01:41;;;;;;;5.20;3.38;;;18.00;57.60;;;;;;5000464;28;20038;-62
2021/12/15 12:04:16;;;;;;;6.70;3.63;;;18.00;57.70;;;;;;5000132;28;20496;-63
2021/12/15 12:06:44;;;;;;;6.88;3.75;;;18.00;57.80;;;;;;5000525;28;20407;-61
2021/12/15 12:09:10;;;;;;;5.05;3.60;;;18.00;57.70;;;;;;5001002;28;20033;-61
2021/12/15 12:11:40;;;;;;;5.10;3.22;;;18.00;57.70;;;;;;5000885;28;20666;-63
2021/12/15 12:14:08;;;;;;;6.75;3.75;;;18.00;57.80;;;;;;4999282;28;20037;-62
2021/12/15 12:16:33;;;;;;;7.15;3.65;;;18.00;57.80;;;;;;4998632;28;20018;-62
2021/12/15 12:18:59;;;;;;;7.10;3.60;;;17.90;57.90;;;;;;4998164;28;20805;-61
2021/12/15 12:21:24;;;;;;;11.27;4.38;;;18.00;58.00;;;;;;5000002;28;20120;-63
2021/12/15 12:23:50;;;;;;;4.85;3.30;;;18.00;58.10;;;;;;5000498;28;20343;-63
2021/12/15 12:26:16;;;;;;;7.32;3.97;;;18.00;58.10;;;;;;4999586;28;20042;-60
2021/12/15 12:28:43;;;;;;;5.03;3.40;;;18.00;58.30;;;;;;5000178;28;20029;-62
2021/12/15 12:31:13;;;;;;;7.82;3.50;;;18.00;58.10;;;;;;4999412;28;20034;-62
2021/12/15 12:33:39;;;;;;;7.53;3.40;;;17.90;58.10;;;;;;5001308;28;20030;-62
2021/12/15 12:36:10;;;;;;;5.53;3.03;;;17.90;58.10;;;;;;5002173;28;20030;-62
2021/12/15 12:38:39;;;;;;;5.28;3.40;;;17.90;58.10;;;;;;5001823;28;21776;-62
2021/12/15 12:41:16;;;;;;;5.38;3.25;;;18.00;58.10;;;;;;5002692;28;20034;-62
2021/12/15 12:43:56;;;;;;;5.35;3.22;;;17.90;58.00;;;;;;5000935;28;20522;-63
2021/12/15 12:46:28;;;;;;;6.03;3.40;;;18.00;58.00;;;;;;5002375;28;20153;-63
2021/12/15 13:00:26;;;;;;;3.35;2.72;;;17.90;58.10;;;;;;5001892;28;20037;-61
2021/12/15 13:03:01;;;;;;;5.07;2.67;;;17.90;58.10;;;;;;5013585;22;20026;-56
2021/12/15 13:05:38;;;;;;;5.15;3.08;;;17.90;58.10;;;;;;5021068;28;20541;-57
2021/12/15 13:08:06;;;;;;;4.55;2.75;;;18.00;58.30;;;;;;5022836;28;20052;-54
2021/12/15 13:10:52;;;;;;;5.43;2.88;;;17.90;58.20;;;;;;5024405;28;20033;-57
2021/12/15 13:13:20;;;;;;;3.33;2.35;;;17.90;58.20;;;;;;5023603;28;20029;-58
2021/12/15 13:16:12;;;;;;;4.20;2.90;;;17.90;58.30;;;;;;5025445;28;20048;-59
2021/12/15 13:18:49;;;;;;;5.07;3.10;;;17.90;58.20;;;;;;5022419;28;20025;-57
2021/12/15 13:21:18;;;;;;;3.88;2.55;;;17.90;58.20;;;;;;5040941;28;20503;-55
2021/12/15 13:23:49;;;;;;;4.20;2.65;;;17.90;58.30;;;;;;5044458;28;20033;-56
2021/12/15 13:29:28;;;;;;;3.33;2.20;;;17.90;58.30;;;;;;5042013;28;20067;-58
2021/12/15 13:31:56;;;;;;;3.25;2.50;;;17.90;58.30;;;;;;5043666;28;20049;-59
2021/12/15 13:34:36;;;;;;;4.43;2.47;;;18.00;58.30;;;;;;5044248;28;20700;-59
2021/12/15 13:37:01;;;;;;;3.40;2.40;;;18.00;58.30;;;;;;5044685;28;20037;-55
2021/12/15 13:39:31;;;;;;;4.47;2.10;;;18.00;58.30;;;;;;5042067;28;20029;-59
2021/12/15 13:44:35;;;;;;;3.67;2.30;;;18.00;58.30;;;;;;5043631;28;20076;-54
2021/12/15 13:47:03;;;;;;;3.13;2.17;;;18.00;58.30;;;;;;5043220;28;20546;-52
2021/12/15 13:49:50;;;;;;;4.82;2.20;;;18.00;58.30;;;;;;5043617;28;20037;-56
2021/12/15 13:52:39;;;;;;;2.65;1.95;;;18.00;58.30;;;;;;5043380;28;20032;-58
2021/12/15 13:55:04;;;;;;;2.30;1.88;;;18.00;58.40;;;;;;5043794;28;20033;-55
2021/12/15 13:57:35;;;;;;;3.53;2.28;;;17.90;58.30;;;;;;5044154;28;20025;-57
2021/12/15 14:00:06;;;;;;;3.38;1.98;;;17.90;58.40;;;;;;5041958;28;20025;-59
2021/12/15 14:02:41;;;;;;;3.20;2.13;;;17.90;58.30;;;;;;5043885;28;20040;-58
2021/12/15 14:05:15;;;;;;;2.55;2.25;;;18.00;58.40;;;;;;5031940;28;22075;-54
2021/12/15 14:07:45;;;;;;;2.67;2.15;;;17.90;58.90;;;;;;5043257;28;20041;-59
2021/12/15 14:10:10;;;;;;;2.47;2.28;;;17.90;58.30;;;;;;5042535;28;20299;-58
2021/12/15 14:12:44;;;;;;;5.85;2.30;;;17.90;58.40;;;;;;5044187;28;20108;-58